Flight Track Log - Related Links

Times and Time Zones

All times are in EDT time to prevent confusion due to time zone crossing. See the N527DV flight status page for this flight to view local times or setup timezone preferences in your user account.

Time Position Orientation Groundspeed Altitude Reporting Facility
EDT Latitude Longitude Course Direction KTS MPH feet Rate Location/Type
Wed 08:11:00 PM 46.5978 -121.1044 282° West  Level Estimated
Wed 08:12:08 PM 46.5780 -121.3600 282° West 346 398 14,900  Level FlightAware ADS-B
Wed 08:12:38 PM 46.5782 -121.4300 270° West 344 396 14,900  Level FlightAware ADS-B
Wed 08:13:18 PM 46.5784 -121.5220 270° West 344 396 14,900  Level FlightAware ADS-B
Wed 08:13:50 PM 46.5784 -121.5960 270° West 342 394 14,900  Level FlightAware ADS-B
Wed 08:14:15 PM 46.5795 -121.6530 272° West 342 394 14,900  Level FlightAware ADS-B
Wed 08:14:18 PM 46.5800 -121.6600 276° West 342 394 14,900  Level FlightAware ADS-B
Wed 08:14:59 PM 46.5872 -121.7530 276° West 342 394 14,900  Level FlightAware ADS-B
Wed 08:15:29 PM 46.5926 -121.8220 277° West 341 392 14,900  Level FlightAware ADS-B
Wed 08:16:01 PM 46.5982 -121.8940 276° West 341 392 14,900 -286 Level FlightAware ADS-B
Wed 08:16:32 PM 46.6035 -121.9640 276° West 335 386 14,600 -590 Descending FlightAware ADS-B
Wed 08:17:02 PM 46.6087 -122.0310 276° West 331 381 14,300 -800 Descending FlightAware ADS-B
Wed 08:17:32 PM 46.6136 -122.0970 276° West 329 379 13,800 -1,300 Descending FlightAware ADS-B
Wed 08:18:02 PM 46.6187 -122.1640 276° West 335 386 13,000 -1,800 Descending FlightAware ADS-B
Wed 08:18:32 PM 46.6237 -122.2310 276° West 332 382 12,000 -1,900 Descending FlightAware ADS-B
Wed 08:19:02 PM 46.6286 -122.2980 276° West 328 377 11,100 -1,770 Descending FlightAware ADS-B
Wed 08:19:33 PM 46.6334 -122.3630 276° West 321 369 10,200 -1,435 Descending FlightAware ADS-B
Wed 08:19:48 PM 46.6358 -122.3950 276° West 316 364 10,000 -600 Descending FlightAware ADS-B
Wed 08:20:03 PM 46.6381 -122.4280 276° West 312 359 9,900 -194 Descending FlightAware ADS-B
Wed 08:20:19 PM 46.6404 -122.4590 276° West 308 354 9,900 -387 Level FlightAware ADS-B
Wed 08:20:34 PM 46.6425 -122.4900 276° West 297 342 9,700 -1,600 Descending FlightAware ADS-B
Wed 08:20:49 PM 46.6447 -122.5200 276° West 294 338 9,100 -2,571 Descending FlightAware ADS-B
Wed 08:21:09 PM 46.6475 -122.5590 276° West 291 335 8,200 -2,432 Descending FlightAware ADS-B
Wed 08:21:26 PM 46.6498 -122.5910 276° West 286 329 7,600 -2,250 Descending FlightAware ADS-B
Wed 08:21:41 PM 46.6518 -122.6190 276° West 281 323 7,000 -2,323 Descending FlightAware ADS-B
Wed 08:21:57 PM 46.6539 -122.6490 276° West 277 319 6,400 -2,250 Descending FlightAware ADS-B
Wed 08:22:13 PM 46.6560 -122.6790 276° West 273 314 5,800 -1,875 Descending FlightAware ADS-B
Wed 08:22:29 PM 46.6580 -122.7070 276° West 267 307 5,400 -1,742 Descending FlightAware ADS-B
Wed 08:22:44 PM 46.6599 -122.7350 276° West 263 303 4,900 -1,742 Descending FlightAware ADS-B
Wed 08:23:00 PM 46.6619 -122.7630 276° West 262 302 4,500 -1,313 Descending FlightAware ADS-B
Wed 08:23:16 PM 46.6638 -122.7900 276° West 261 300 4,200 -1,500 Descending FlightAware ADS-B
Wed 08:23:44 PM 46.6672 -122.8400 276° West 254 292 3,400 -1,500 Descending FlightAware ADS-B
Wed 08:24:00 PM 46.6690 -122.8650 276° West 248 285 3,100 -1,355 Descending FlightAware ADS-B
Wed 08:24:15 PM 46.6707 -122.8900 276° West 241 277 2,700 -1,400 Descending FlightAware ADS-B
Wed 08:24:30 PM 46.6725 -122.9140 276° West 232 267 2,400 -1,333 Descending FlightAware ADS-B
Wed 08:24:42 PM 46.6739 -122.9320 276° West 225 259 2,100 -1,000 Descending FlightAware ADS-B
Wed 08:24:54 PM 46.6752 -122.9500 276° West 215 247 2,000 -444 Descending FlightAware ADS-B
Wed 08:25:09 PM 46.6769 -122.9710 277° West 195 224 1,900  Descending FlightAware ADS-B
Wed 08:25:24 PM 46.6782 -122.9880 276° West 173 199 2,000 316 Climbing FlightAware ADS-B
Wed 08:25:28 PM 46.6781 -122.9940 269° West 166 191 2,000 -400 Level FlightAware ADS-B
Wed 08:25:39 PM 46.6772 -123.0050 263° West 159 183 1,900 -1,143 Descending FlightAware ADS-B
Wed 08:25:49 PM 46.6730 -123.0130 233° Southwest 160 184 1,600 -1,667 Descending FlightAware ADS-B
Wed 08:25:57 PM 46.6674 -123.0160 200° South 164 189 1,400 -1,500 Descending FlightAware ADS-B
Wed 08:26:01 PM 46.6645 -123.0170 193° South 163 188 1,300 -1,200 Descending FlightAware ADS-B
Wed 08:26:07 PM 46.6595 -123.0160 172° South 155 178 1,200 -600 Descending FlightAware ADS-B
Wed 08:26:11 PM 46.6570 -123.0160 180° South 152 175 1,200 -667 Level FlightAware ADS-B
Wed 08:26:16 PM 46.6540 -123.0130 146° Southeast 147 169 1,100 -1,200 Descending FlightAware ADS-B

Login

Don't have an account? Register now (free) for customized features, flight alerts, and more!